Sd416 Nippon — SKPF — position and weather

sailwx.info

Track history (hours):
 
Tides and Currents Weather Stations Pressure Air Temp Water Temp Dewpoint Dewpoint Depression Visibility Wind Speed Wind Dir Waves Ship Positions

Sd416 Nippon

Last reported at 2015-Mar-24 17:14 UTC. Time now 2015-Mar-27 19:13 UTC.
Position N 58°52' E 010°50'.

Length 17 m; draft 2.5 m.

Type: Fishing. MMSI: 266163000.

Date/timePositionNaut miles runAvg speedWind from/ knotsBaromVisibWave heightAir tempDewpointWater temp
2015-Mar-24 17:14N 58°52' E 010°50'1 1.9
2015-Mar-24 16:31N 58°51' E 010°49'2 2.0
2015-Mar-24 15:33N 58°49' E 010°47'2 2.0
2015-Mar-24 14:33N 58°47' E 010°45'2 2.0
2015-Mar-24 13:33N 58°45' E 010°45'2 1.7
2015-Mar-24 12:33N 58°44' E 010°46'1 1.2
2015-Mar-24 11:33N 58°45' E 010°46'1 1.2
2015-Mar-24 10:33N 58°44' E 010°47'1 1.1
2015-Mar-24 09:32N 58°45' E 010°45'1 1.4
2015-Mar-24 08:33N 58°46' E 010°46'2 1.5
2015-Mar-24 07:32N 58°45' E 010°48'2 1.9
2015-Mar-24 06:33N 58°47' E 010°50'2 1.6
2015-Mar-24 05:33N 58°49' E 010°50'5 4.9
2015-Mar-24 04:32N 58°53' E 010°54'8 6.5
2015-Mar-24 03:18N 58°56' E 011°09'1 0.1
2015-Mar-23 20:24N 58°56' E 011°10'  
2015-Mar-20 05:12N 58°56' E 011°10'0 0.0
2015-Mar-20 03:17N 58°56' E 011°10'7 0.6
2015-Mar-19 14:28N 59°00' E 010°59'6 6.0
2015-Mar-19 13:33N 59°05' E 010°52'0 0.0
2015-Mar-19 12:33N 59°05' E 010°52'0 0.0
2015-Mar-19 11:33N 59°05' E 010°52'0 0.0
2015-Mar-19 10:33N 59°05' E 010°52'0 0.0
2015-Mar-19 09:33N 59°05' E 010°52'0 0.3
2015-Mar-19 08:33N 59°04' E 010°52'13 0.9
2015-Mar-18 18:22N 58°51' E 010°48'3 4.2
2015-Mar-18 17:33N 58°49' E 010°43'2 1.6
2015-Mar-18 16:33N 58°48' E 010°42'2 0.6
2015-Mar-18 13:17N 58°50' E 010°42'1 1.7
2015-Mar-18 12:33N 58°48' E 010°42'2 1.9
2015-Mar-18 11:33N 58°46' E 010°41'2 1.9
2015-Mar-18 10:33N 58°45' E 010°41'2 1.9
2015-Mar-18 09:33N 58°43' E 010°41'18 3.1
2015-Mar-18 03:33N 58°56' E 011°04'10 0.5
2015-Mar-17 09:24N 58°51' E 010°48'2 1.0
2015-Mar-17 07:17N 58°53' E 010°48'1 1.4
2015-Mar-17 06:31N 58°54' E 010°50'2 1.1
2015-Mar-17 04:21N 58°52' E 010°47'1 1.3
2015-Mar-17 03:28N 58°51' E 010°48'1 1.3
2015-Mar-17 02:29N 58°50' E 010°49'2 1.2
2015-Mar-17 01:13N 58°49' E 010°51'2 1.3
2015-Mar-16 23:33N 58°47' E 010°54'4 3.6
2015-Mar-16 22:19N 58°50' E 010°48'2 1.1
2015-Mar-16 20:23N 58°52' E 010°48'1 1.4
2015-Mar-16 19:24N 58°53' E 010°49'0 0.1
2015-Mar-16 17:05N 58°53' E 010°49'0 0.1
2015-Mar-16 12:22N 58°53' E 010°49'0 0.5
2015-Mar-16 11:31N 58°53' E 010°49'2 1.0
2015-Mar-16 09:07N 58°51' E 010°49'2 1.0
2015-Mar-16 07:30N 58°52' E 010°48'1 1.4
2015-Mar-16 06:33N 58°53' E 010°49'0 0.1
2015-Mar-16 05:32N 58°53' E 010°49'0 0.3
2015-Mar-16 04:24N 58°53' E 010°48'2 0.4
2015-Mar-16 00:16N 58°51' E 010°48'7 0.9
2015-Mar-15 16:20N 58°56' E 010°59'6 0.5
2015-Mar-15 05:24N 58°56' E 011°10'  
Track history (hours):
 
Tides and Currents Weather Stations Pressure Air Temp Water Temp Dewpoint Dewpoint Depression Visibility Wind Speed Wind Dir Waves Ship Positions

Sd416 Nippon

Last reported at 2015-Mar-24 17:14 UTC. Time now 2015-Mar-27 19:13 UTC.
Position N 58°52' E 010°50'.

Length 17 m; draft 2.5 m.

Type: Fishing. MMSI: 266163000.

Date/timePositionNaut miles runAvg speedWind from/ knotsBaromVisibWave heightAir tempDewpointWater temp
2015-Mar-24 17:14N 58°52' E 010°50'1 1.9
2015-Mar-24 16:31N 58°51' E 010°49'2 2.0
2015-Mar-24 15:33N 58°49' E 010°47'2 2.0
2015-Mar-24 14:33N 58°47' E 010°45'2 2.0
2015-Mar-24 13:33N 58°45' E 010°45'2 1.7
2015-Mar-24 12:33N 58°44' E 010°46'1 1.2
2015-Mar-24 11:33N 58°45' E 010°46'1 1.2
2015-Mar-24 10:33N 58°44' E 010°47'1 1.1
2015-Mar-24 09:32N 58°45' E 010°45'1 1.4
2015-Mar-24 08:33N 58°46' E 010°46'2 1.5
2015-Mar-24 07:32N 58°45' E 010°48'2 1.9
2015-Mar-24 06:33N 58°47' E 010°50'2 1.6
2015-Mar-24 05:33N 58°49' E 010°50'5 4.9
2015-Mar-24 04:32N 58°53' E 010°54'8 6.5
2015-Mar-24 03:18N 58°56' E 011°09'1 0.1
2015-Mar-23 20:24N 58°56' E 011°10'  
2015-Mar-20 05:12N 58°56' E 011°10'0 0.0
2015-Mar-20 03:17N 58°56' E 011°10'7 0.6
2015-Mar-19 14:28N 59°00' E 010°59'6 6.0
2015-Mar-19 13:33N 59°05' E 010°52'0 0.0
2015-Mar-19 12:33N 59°05' E 010°52'0 0.0
2015-Mar-19 11:33N 59°05' E 010°52'0 0.0
2015-Mar-19 10:33N 59°05' E 010°52'0 0.0
2015-Mar-19 09:33N 59°05' E 010°52'0 0.3
2015-Mar-19 08:33N 59°04' E 010°52'13 0.9
2015-Mar-18 18:22N 58°51' E 010°48'3 4.2
2015-Mar-18 17:33N 58°49' E 010°43'2 1.6
2015-Mar-18 16:33N 58°48' E 010°42'2 0.6
2015-Mar-18 13:17N 58°50' E 010°42'1 1.7
2015-Mar-18 12:33N 58°48' E 010°42'2 1.9
2015-Mar-18 11:33N 58°46' E 010°41'2 1.9
2015-Mar-18 10:33N 58°45' E 010°41'2 1.9
2015-Mar-18 09:33N 58°43' E 010°41'18 3.1
2015-Mar-18 03:33N 58°56' E 011°04'10 0.5
2015-Mar-17 09:24N 58°51' E 010°48'2 1.0
2015-Mar-17 07:17N 58°53' E 010°48'1 1.4
2015-Mar-17 06:31N 58°54' E 010°50'2 1.1
2015-Mar-17 04:21N 58°52' E 010°47'1 1.3
2015-Mar-17 03:28N 58°51' E 010°48'1 1.3
2015-Mar-17 02:29N 58°50' E 010°49'2 1.2
2015-Mar-17 01:13N 58°49' E 010°51'2 1.3
2015-Mar-16 23:33N 58°47' E 010°54'4 3.6
2015-Mar-16 22:19N 58°50' E 010°48'2 1.1
2015-Mar-16 20:23N 58°52' E 010°48'1 1.4
2015-Mar-16 19:24N 58°53' E 010°49'0 0.1
2015-Mar-16 17:05N 58°53' E 010°49'0 0.1
2015-Mar-16 12:22N 58°53' E 010°49'0 0.5
2015-Mar-16 11:31N 58°53' E 010°49'2 1.0
2015-Mar-16 09:07N 58°51' E 010°49'2 1.0
2015-Mar-16 07:30N 58°52' E 010°48'1 1.4
2015-Mar-16 06:33N 58°53' E 010°49'0 0.1
2015-Mar-16 05:32N 58°53' E 010°49'0 0.3
2015-Mar-16 04:24N 58°53' E 010°48'2 0.4
2015-Mar-16 00:16N 58°51' E 010°48'7 0.9
2015-Mar-15 16:20N 58°56' E 010°59'6 0.5
2015-Mar-15 05:24N 58°56' E 011°10'  

Dump ship's entire track history